createdAt,value
2022-09-22T00:01:11.639Z,67.58
2022-09-22T00:03:43.437Z,67.61
2022-09-22T00:06:17.627Z,67.86
2022-09-22T00:08:48.902Z,68.15
2022-09-22T00:11:18.625Z,68.27
2022-09-22T00:13:51.283Z,68.34
2022-09-22T00:16:23.871Z,68.28
2022-09-22T00:18:50.783Z,68.58
2022-09-22T00:21:19.354Z,68.20
2022-09-22T00:23:49.344Z,68.15
2022-09-22T00:26:21.628Z,68.40
2022-09-22T00:28:49.668Z,68.48
2022-09-22T00:31:24.661Z,68.59
2022-09-22T00:33:53.204Z,68.60
2022-09-22T00:36:22.209Z,68.56
2022-09-22T00:38:52.061Z,68.39
2022-09-22T00:41:23.781Z,68.49
2022-09-22T00:44:12.318Z,68.40
2022-09-22T00:46:41.715Z,68.68
2022-09-22T00:49:09.398Z,68.94
2022-09-22T00:51:39.822Z,69.05
2022-09-22T00:54:11.891Z,69.30
2022-09-22T00:56:55.978Z,69.70
2022-09-22T00:59:25.442Z,69.02
2022-09-22T01:01:52.760Z,69.08
2022-09-22T01:04:19.516Z,68.29
2022-09-22T01:06:46.420Z,68.61
2022-09-22T01:09:13.833Z,68.94
2022-09-22T01:11:41.471Z,68.82
2022-09-22T01:14:28.327Z,68.85
2022-09-22T01:17:08.671Z,68.76
2022-09-22T01:19:43.915Z,69.50
2022-09-22T01:22:48.947Z,68.89
2022-09-22T01:25:29.326Z,69.19
2022-09-22T01:27:58.827Z,69.05
2022-09-22T01:30:36.624Z,68.97
2022-09-22T01:33:19.939Z,69.22
2022-09-22T01:36:02.665Z,69.54
2022-09-22T01:38:36.300Z,69.76
2022-09-22T01:41:33.937Z,69.25
2022-09-22T01:44:07.505Z,69.34
2022-09-22T01:46:42.934Z,69.31
2022-09-22T01:49:14.839Z,69.54
2022-09-22T01:51:47.726Z,69.07
2022-09-22T01:54:24.824Z,68.57
2022-09-22T01:56:58.422Z,68.81
2022-09-22T01:59:30.191Z,68.94
2022-09-22T02:02:02.326Z,68.74
2022-09-22T02:04:41.126Z,69.17
2022-09-22T02:07:15.572Z,69.56
2022-09-22T02:09:42.556Z,69.60
2022-09-22T02:12:09.155Z,69.79
2022-09-22T02:14:35.909Z,69.86
2022-09-22T02:17:02.571Z,69.98
2022-09-22T02:19:39.869Z,69.95
2022-09-22T02:22:08.123Z,69.97
2022-09-22T02:24:37.502Z,70.09
2022-09-22T02:27:18.604Z,69.61
2022-09-22T02:30:12.628Z,69.34
2022-09-22T02:32:42.664Z,69.50
2022-09-22T02:35:09.926Z,69.47
2022-09-22T02:37:41.970Z,69.58
2022-09-22T02:40:27.553Z,69.47
2022-09-22T02:43:03.127Z,70.01
2022-09-22T02:45:37.965Z,69.80
2022-09-22T02:48:19.709Z,69.50
2022-09-22T02:50:46.136Z,69.74
2022-09-22T02:53:15.671Z,69.76
2022-09-22T02:55:43.691Z,69.69
2022-09-22T02:58:11.013Z,69.70
2022-09-22T03:00:42.131Z,69.56
2022-09-22T03:03:10.611Z,69.81
2022-09-22T03:05:38.184Z,70.06
2022-09-22T03:08:05.067Z,70.02
2022-09-22T03:10:31.633Z,69.83
2022-09-22T03:13:15.468Z,69.73
2022-09-22T03:15:44.022Z,69.70
2022-09-22T03:18:10.508Z,70.08
2022-09-22T03:20:37.084Z,70.19
2022-09-22T03:23:03.579Z,70.17
2022-09-22T03:25:30.060Z,69.93
2022-09-22T03:27:56.593Z,70.09
2022-09-22T03:30:23.127Z,70.03
2022-09-22T03:32:49.676Z,69.88
2022-09-22T03:35:16.256Z,69.79
2022-09-22T03:37:42.759Z,69.95
2022-09-22T03:40:09.597Z,70.06
2022-09-22T03:42:36.139Z,70.13
2022-09-22T03:45:04.421Z,70.42
2022-09-22T03:47:31.526Z,70.49
2022-09-22T03:49:58.164Z,70.43
2022-09-22T03:52:24.706Z,70.53
2022-09-22T03:54:52.181Z,70.33
2022-09-22T03:57:18.668Z,70.46
2022-09-22T03:59:45.475Z,70.21
2022-09-22T04:02:13.002Z,70.20
2022-09-22T04:04:39.562Z,69.93
2022-09-22T04:07:07.371Z,69.99
2022-09-22T04:09:34.528Z,70.02
2022-09-22T04:12:01.140Z,69.97
2022-09-22T04:14:27.936Z,69.98
2022-09-22T04:16:54.596Z,70.33
2022-09-22T04:19:21.220Z,69.99
2022-09-22T04:21:47.670Z,70.14
2022-09-22T04:24:14.178Z,70.22
2022-09-22T04:26:51.792Z,70.12
2022-09-22T04:29:27.261Z,69.89
2022-09-22T04:31:53.765Z,70.21
2022-09-22T04:34:20.302Z,69.81
2022-09-22T04:36:46.764Z,69.64
2022-09-22T04:39:13.383Z,69.76
2022-09-22T04:41:39.941Z,69.86
2022-09-22T04:44:06.373Z,70.06
2022-09-22T04:46:33.157Z,70.08
2022-09-22T04:48:59.779Z,69.95
2022-09-22T04:51:26.347Z,70.11
2022-09-22T04:53:52.822Z,70.14
2022-09-22T04:56:19.570Z,69.91
2022-09-22T04:58:46.101Z,69.91
2022-09-22T05:01:12.809Z,69.98
2022-09-22T05:03:39.453Z,70.11
2022-09-22T05:06:06.774Z,70.02
2022-09-22T05:08:33.488Z,70.04
2022-09-22T05:10:59.975Z,70.37
2022-09-22T05:13:26.891Z,70.18
2022-09-22T05:15:53.482Z,70.27
2022-09-22T05:18:20.673Z,70.42
2022-09-22T05:20:47.553Z,70.28
2022-09-22T05:23:14.106Z,70.25
2022-09-22T05:25:41.693Z,70.00
2022-09-22T05:28:08.410Z,69.94
2022-09-22T05:30:34.892Z,69.43
2022-09-22T05:33:01.360Z,69.87
2022-09-22T05:35:27.832Z,70.09
2022-09-22T05:37:54.465Z,69.87
2022-09-22T05:40:24.004Z,69.94
2022-09-22T05:42:51.670Z,70.04
2022-09-22T05:45:19.594Z,70.11
2022-09-22T05:47:46.511Z,69.61
2022-09-22T05:50:14.822Z,69.39
2022-09-22T05:52:41.522Z,69.15
2022-09-22T05:55:09.109Z,69.57
2022-09-22T05:57:35.651Z,69.83
2022-09-22T06:00:03.017Z,69.66
2022-09-22T06:02:38.406Z,69.26
2022-09-22T06:05:05.133Z,68.76
2022-09-22T06:07:31.670Z,69.30
2022-09-22T06:09:58.169Z,68.80
2022-09-22T06:12:24.776Z,68.76
2022-09-22T06:14:51.254Z,68.71
2022-09-22T06:17:17.827Z,68.55
2022-09-22T06:19:46.156Z,68.46
2022-09-22T06:22:12.588Z,68.65
2022-09-22T06:24:39.025Z,68.41
2022-09-22T06:27:05.611Z,68.04
2022-09-22T06:29:32.089Z,68.11
2022-09-22T06:31:58.642Z,68.39
2022-09-22T06:34:27.128Z,68.30
2022-09-22T06:36:57.140Z,68.01
2022-09-22T06:39:23.736Z,67.88
2022-09-22T06:41:50.459Z,67.79
2022-09-22T06:44:16.949Z,68.12
2022-09-22T06:46:43.455Z,67.77
2022-09-22T06:49:09.964Z,67.51
2022-09-22T06:51:36.931Z,67.72
2022-09-22T06:54:05.856Z,67.52
2022-09-22T06:56:37.044Z,67.26
2022-09-22T06:59:12.177Z,67.02
2022-09-22T07:01:40.491Z,66.96
2022-09-22T07:04:08.116Z,67.09
2022-09-22T07:06:37.291Z,66.93
2022-09-22T07:09:05.394Z,67.12
2022-09-22T07:11:34.278Z,66.71
2022-09-22T07:14:04.135Z,66.45
2022-09-22T07:16:30.697Z,66.41
2022-09-22T07:18:58.453Z,66.17
2022-09-22T07:21:36.252Z,66.39
2022-09-22T07:24:04.287Z,66.29
2022-09-22T07:26:33.726Z,66.11
2022-09-22T07:29:02.803Z,66.16
2022-09-22T07:31:31.911Z,65.90
2022-09-22T07:34:01.646Z,65.87
2022-09-22T07:36:30.808Z,65.44
2022-09-22T07:39:02.938Z,65.38
2022-09-22T07:41:31.652Z,65.01
2022-09-22T07:44:22.736Z,65.02
2022-09-22T07:46:49.348Z,65.09
2022-09-22T07:49:17.576Z,64.81
2022-09-22T07:51:44.083Z,64.89
2022-09-22T07:54:10.830Z,64.73
2022-09-22T07:56:43.486Z,64.41
2022-09-22T07:59:12.499Z,64.57
2022-09-22T08:01:44.640Z,64.55
2022-09-22T08:04:16.461Z,64.15
2022-09-22T08:06:44.368Z,63.90
2022-09-22T08:09:11.797Z,63.73
2022-09-22T08:11:38.804Z,63.02
2022-09-22T08:14:08.347Z,63.02
2022-09-22T08:16:36.568Z,62.96
2022-09-22T08:19:10.566Z,62.93
2022-09-22T08:21:46.433Z,62.89
2022-09-22T08:24:16.341Z,62.10
2022-09-22T08:26:48.082Z,61.95
2022-09-22T08:29:14.949Z,61.58
2022-09-22T08:31:42.328Z,61.30
2022-09-22T08:34:09.688Z,61.35
2022-09-22T08:36:37.500Z,60.62
2022-09-22T08:39:05.099Z,60.83
2022-09-22T08:41:44.003Z,59.92
2022-09-22T08:44:10.701Z,59.78
2022-09-22T08:46:41.122Z,59.53
2022-09-22T08:49:50.740Z,58.95
2022-09-22T08:52:35.374Z,58.67
2022-09-22T08:55:03.350Z,58.73
2022-09-22T08:57:47.461Z,58.27
2022-09-22T09:00:17.296Z,58.05
2022-09-22T09:03:08.506Z,57.91
2022-09-22T09:05:55.765Z,57.44
2022-09-22T09:08:50.535Z,57.07
2022-09-22T09:11:36.048Z,56.50
2022-09-22T09:14:02.682Z,56.24
2022-09-22T09:16:38.702Z,55.18
2022-09-22T09:19:14.468Z,55.24
2022-09-22T09:21:47.289Z,54.73
2022-09-22T09:27:40.235Z,52.95
2022-09-22T09:30:21.199Z,53.05
2022-09-22T09:32:56.337Z,52.57
2022-09-22T09:35:45.211Z,52.06
2022-09-22T09:38:15.426Z,52.25
2022-09-22T09:40:44.589Z,52.03
2022-09-22T09:43:12.015Z,51.83
2022-09-22T09:46:12.906Z,51.24
2022-09-22T09:49:05.460Z,50.89
2022-09-22T09:51:39.677Z,50.94
2022-09-22T09:54:11.894Z,50.64
2022-09-22T09:57:08.044Z,48.83
2022-09-22T09:59:55.101Z,49.40
2022-09-22T10:02:27.311Z,48.74
2022-09-22T10:05:05.063Z,48.72
2022-09-22T10:07:41.772Z,47.97
2022-09-22T10:10:23.614Z,47.54
2022-09-22T10:12:50.139Z,47.25
2022-09-22T10:15:25.416Z,47.76
2022-09-22T10:17:52.267Z,46.41
2022-09-22T10:20:28.183Z,44.06
2022-09-22T10:22:56.247Z,45.42
2022-09-22T10:25:31.979Z,44.69
2022-09-22T10:28:05.011Z,45.50
2022-09-22T10:30:36.929Z,44.56
2022-09-22T10:33:20.388Z,44.49
2022-09-22T10:36:07.737Z,43.60
2022-09-22T10:38:42.947Z,43.96
2022-09-22T10:41:14.866Z,42.22
2022-09-22T10:43:50.189Z,40.77
2022-09-22T10:46:32.526Z,41.60
2022-09-22T10:49:23.793Z,42.36
2022-09-22T10:52:04.138Z,41.82
2022-09-22T10:54:43.323Z,41.20
2022-09-22T10:57:38.835Z,41.45
2022-09-22T11:00:17.202Z,39.49
2022-09-22T11:02:57.277Z,39.93
2022-09-22T11:06:10.623Z,40.44
2022-09-22T11:09:19.521Z,41.20
2022-09-22T11:12:16.517Z,40.55
2022-09-22T11:15:02.185Z,40.20
2022-09-22T11:17:53.672Z,40.30
2022-09-22T11:20:38.228Z,39.29
2022-09-22T11:23:22.372Z,38.77
2022-09-22T11:26:13.949Z,37.67
2022-09-22T11:28:54.906Z,38.87
2022-09-22T11:31:59.559Z,37.49
2022-09-22T11:34:58.007Z,37.65
2022-09-22T11:38:22.409Z,36.87
2022-09-22T11:41:03.012Z,38.72
2022-09-22T11:43:58.502Z,38.54
2022-09-22T11:47:03.360Z,36.57
2022-09-22T11:50:00.861Z,37.54
2022-09-22T11:52:58.422Z,37.36
2022-09-22T11:55:46.910Z,37.25
2022-09-22T11:58:21.395Z,37.62
2022-09-22T12:00:56.586Z,35.99
2022-09-22T12:03:33.093Z,37.23
2022-09-22T12:06:05.847Z,37.08
2022-09-22T12:08:38.849Z,36.94
2022-09-22T12:11:07.935Z,37.04
2022-09-22T12:13:37.274Z,36.34
2022-09-22T12:16:07.280Z,36.61
2022-09-22T12:19:00.235Z,34.94
2022-09-22T12:21:50.301Z,35.63
2022-09-22T12:24:16.896Z,36.20
2022-09-22T12:26:47.080Z,35.86
2022-09-22T12:29:13.767Z,36.04
2022-09-22T12:31:43.743Z,36.02
2022-09-22T12:34:23.358Z,35.13
2022-09-22T12:36:55.231Z,35.56
2022-09-22T12:39:29.242Z,34.34
2022-09-22T12:42:01.587Z,35.74
2022-09-22T12:44:51.464Z,35.75
2022-09-22T12:47:28.974Z,35.85
2022-09-22T12:50:00.899Z,35.91
2022-09-22T12:52:39.637Z,35.90
2022-09-22T12:55:38.553Z,35.78
2022-09-22T12:58:28.321Z,35.90
2022-09-22T13:01:14.614Z,35.95
2022-09-22T13:03:49.138Z,35.60
2022-09-22T13:06:21.965Z,35.58
2022-09-22T13:08:48.525Z,35.55
2022-09-22T13:11:15.392Z,35.57
2022-09-22T13:13:47.229Z,35.06
2022-09-22T13:16:25.752Z,35.39
2022-09-22T13:18:52.845Z,35.04
2022-09-22T13:21:28.009Z,35.34
2022-09-22T13:23:55.400Z,35.63
2022-09-22T13:26:34.473Z,35.16
2022-09-22T13:29:12.723Z,34.93
2022-09-22T13:31:48.485Z,34.56
2022-09-22T13:34:33.296Z,33.96
2022-09-22T13:37:04.435Z,34.68
2022-09-22T13:39:35.129Z,34.41
2022-09-22T13:42:14.402Z,34.14
2022-09-22T13:44:45.489Z,34.18
2022-09-22T13:47:20.112Z,34.53
2022-09-22T13:49:53.134Z,34.70
2022-09-22T13:52:24.734Z,34.63
2022-09-22T13:54:57.705Z,34.19
2022-09-22T13:57:31.699Z,33.91
2022-09-22T14:00:00.240Z,33.75
2022-09-22T14:02:31.869Z,33.39
2022-09-22T14:05:18.046Z,33.75
2022-09-22T14:08:07.650Z,33.81
2022-09-22T14:10:32.712Z,33.57
2022-09-22T14:12:59.308Z,33.55
2022-09-22T14:15:36.140Z,33.75
2022-09-22T14:18:09.926Z,33.92
2022-09-22T14:20:43.421Z,33.77
2022-09-22T14:23:32.226Z,33.93
2022-09-22T14:26:02.205Z,34.30
2022-09-22T14:28:36.771Z,33.04
2022-09-22T14:31:14.339Z,34.08
2022-09-22T14:33:44.910Z,33.69
2022-09-22T14:36:17.267Z,32.93
2022-09-22T14:38:50.057Z,32.75
2022-09-22T14:41:27.588Z,32.68
2022-09-22T14:43:55.139Z,32.99
2022-09-22T14:46:33.660Z,33.44
2022-09-22T14:49:40.617Z,33.22
2022-09-22T14:52:32.951Z,33.73
2022-09-22T14:55:10.206Z,33.56
2022-09-22T14:57:36.789Z,34.06
2022-09-22T15:00:22.813Z,34.04
2022-09-22T15:02:53.910Z,34.14
2022-09-22T15:05:30.379Z,34.02
2022-09-22T15:07:58.356Z,33.75
2022-09-22T15:10:27.852Z,34.15
2022-09-22T15:12:56.789Z,34.28
2022-09-22T15:15:26.694Z,34.04
2022-09-22T15:18:16.086Z,34.02
2022-09-22T15:20:50.943Z,34.29
2022-09-22T15:23:21.485Z,33.67
2022-09-22T15:25:49.024Z,33.48
2022-09-22T15:28:18.228Z,33.82
2022-09-22T15:30:47.485Z,33.21
2022-09-22T15:33:15.710Z,33.35
2022-09-22T15:35:44.718Z,33.04
2022-09-22T15:38:27.543Z,32.99
2022-09-22T15:40:54.115Z,33.04
2022-09-22T15:43:23.397Z,33.15
2022-09-22T15:45:53.893Z,32.53
2022-09-22T15:48:27.022Z,32.97
2022-09-22T15:50:55.337Z,33.04
2022-09-22T15:53:23.109Z,33.02
2022-09-22T15:55:54.493Z,32.96
2022-09-22T15:58:23.222Z,33.11
2022-09-22T16:00:53.309Z,32.85
2022-09-22T16:03:23.442Z,32.93
2022-09-22T16:05:56.616Z,33.14
2022-09-22T16:08:31.329Z,33.18
2022-09-22T16:11:05.530Z,33.30
2022-09-22T16:13:33.307Z,33.19
2022-09-22T16:16:05.467Z,33.32
2022-09-22T16:18:33.072Z,33.00
2022-09-22T16:21:06.732Z,33.23
2022-09-22T16:23:33.512Z,33.30
2022-09-22T16:26:00.104Z,33.25
2022-09-22T16:28:26.766Z,33.09
2022-09-22T16:30:53.285Z,33.24
2022-09-22T16:33:19.763Z,33.35
2022-09-22T16:35:46.318Z,33.50
2022-09-22T16:38:12.910Z,33.63
2022-09-22T16:40:39.737Z,33.50
2022-09-22T16:43:08.741Z,33.97
2022-09-22T16:45:54.157Z,34.18
2022-09-22T16:48:20.716Z,33.99
2022-09-22T16:50:47.227Z,34.33
2022-09-22T16:53:14.218Z,34.21
2022-09-22T16:55:48.220Z,34.73
2022-09-22T16:58:14.746Z,34.88
2022-09-22T17:00:41.249Z,35.00
2022-09-22T17:03:08.290Z,35.56
2022-09-22T17:05:35.272Z,35.78
2022-09-22T17:08:06.523Z,36.19
2022-09-22T17:10:35.813Z,36.38
2022-09-22T17:13:04.707Z,36.52
2022-09-22T17:15:35.890Z,37.01
2022-09-22T17:18:03.896Z,37.42
2022-09-22T17:20:30.587Z,37.44
2022-09-22T17:22:57.801Z,37.98
2022-09-22T17:25:29.137Z,38.23
2022-09-22T17:27:56.350Z,38.62
2022-09-22T17:30:22.867Z,39.46
2022-09-22T17:32:49.539Z,39.82
2022-09-22T17:35:16.067Z,40.04
2022-09-22T17:37:42.525Z,40.36
2022-09-22T17:40:11.259Z,40.57
2022-09-22T17:42:38.146Z,40.98
2022-09-22T17:45:07.253Z,41.11
2022-09-22T17:47:52.341Z,41.23
2022-09-22T17:50:37.315Z,42.06
2022-09-22T17:53:22.377Z,42.22
2022-09-22T17:55:49.099Z,42.79
2022-09-22T17:58:15.525Z,43.23
2022-09-22T18:00:42.181Z,43.74
2022-09-22T18:03:09.416Z,43.89
2022-09-22T18:05:38.739Z,44.05
2022-09-22T18:08:05.239Z,44.26
2022-09-22T18:10:34.539Z,44.77
2022-09-22T18:13:01.601Z,45.38
2022-09-22T18:15:29.090Z,45.28
2022-09-22T18:17:57.978Z,45.91
2022-09-22T18:20:26.077Z,45.90
2022-09-22T18:22:53.006Z,46.29
2022-09-22T18:25:23.012Z,46.71
2022-09-22T18:27:49.929Z,46.99
2022-09-22T18:30:19.257Z,47.27
2022-09-22T18:32:47.373Z,47.39
2022-09-22T18:35:14.299Z,47.98
2022-09-22T18:37:41.116Z,48.27
2022-09-22T18:40:09.042Z,48.66
2022-09-22T18:42:36.596Z,48.67
2022-09-22T18:45:03.745Z,49.11
2022-09-22T18:47:30.213Z,49.37
2022-09-22T18:49:56.893Z,49.55
2022-09-22T18:52:24.298Z,50.17
2022-09-22T18:54:53.745Z,50.22
2022-09-22T18:57:22.236Z,50.36
2022-09-22T18:59:50.755Z,51.12
2022-09-22T19:02:19.317Z,50.99
2022-09-22T19:04:45.905Z,51.46
2022-09-22T19:07:31.157Z,51.23
2022-09-22T19:09:57.592Z,52.02
2022-09-22T19:12:24.071Z,52.15
2022-09-22T19:14:54.414Z,52.11
2022-09-22T19:17:20.920Z,52.55
2022-09-22T19:19:48.957Z,52.45
2022-09-22T19:22:15.880Z,53.13
2022-09-22T19:24:44.728Z,53.20
2022-09-22T19:27:13.076Z,53.69
2022-09-22T19:29:39.508Z,53.73
2022-09-22T19:32:06.203Z,54.13
2022-09-22T19:34:33.182Z,54.49
2022-09-22T19:37:00.004Z,54.63
2022-09-22T19:39:26.903Z,54.68
2022-09-22T19:41:54.778Z,54.95
2022-09-22T19:44:22.478Z,54.82
2022-09-22T19:46:50.053Z,55.34
2022-09-22T19:49:17.202Z,55.74
2022-09-22T19:51:43.993Z,55.52
2022-09-22T19:54:10.873Z,55.73
2022-09-22T19:56:37.608Z,55.87
2022-09-22T19:59:07.099Z,56.28
2022-09-22T20:01:39.369Z,56.57
2022-09-22T20:04:07.116Z,56.60
2022-09-22T20:06:34.419Z,56.73
2022-09-22T20:09:03.754Z,57.16
2022-09-22T20:11:38.396Z,57.69
2022-09-22T20:14:22.182Z,57.87
2022-09-22T20:17:04.059Z,57.80
2022-09-22T20:19:32.791Z,58.13
2022-09-22T20:22:25.347Z,58.05
2022-09-22T20:24:57.225Z,57.98
2022-09-22T20:27:29.567Z,58.36
2022-09-22T20:29:57.665Z,58.70
2022-09-22T20:32:31.451Z,58.63
2022-09-22T20:34:57.887Z,58.92
2022-09-22T20:37:24.952Z,59.08
2022-09-22T20:39:51.734Z,59.21
2022-09-22T20:42:18.202Z,59.50
2022-09-22T20:44:45.127Z,59.22
2022-09-22T20:47:19.236Z,59.15
2022-09-22T20:49:51.284Z,59.66
2022-09-22T20:52:19.919Z,59.27
2022-09-22T20:54:46.689Z,59.38
2022-09-22T20:57:14.031Z,59.73
2022-09-22T20:59:40.703Z,60.27
2022-09-22T21:02:07.263Z,60.39
2022-09-22T21:04:33.866Z,60.56
2022-09-22T21:07:01.397Z,60.47
2022-09-22T21:09:46.584Z,60.36
2022-09-22T21:12:13.557Z,60.82
2022-09-22T21:14:45.935Z,60.93
2022-09-22T21:17:13.595Z,60.97
2022-09-22T21:19:40.411Z,61.20
2022-09-22T21:22:06.901Z,61.17
2022-09-22T21:24:34.070Z,61.40
2022-09-22T21:27:00.579Z,61.44
2022-09-22T21:29:28.659Z,61.58
2022-09-22T21:31:56.618Z,61.83
2022-09-22T21:34:23.999Z,62.35
2022-09-22T21:36:51.318Z,62.28
2022-09-22T21:39:18.076Z,62.40
2022-09-22T21:41:44.779Z,62.23
2022-09-22T21:44:11.284Z,62.39
2022-09-22T21:46:40.742Z,62.25
2022-09-22T21:49:08.901Z,62.83
2022-09-22T21:51:41.184Z,62.94
2022-09-22T21:54:12.820Z,62.70
2022-09-22T21:56:39.395Z,62.91
2022-09-22T21:59:05.888Z,63.26
2022-09-22T22:01:36.064Z,63.68
2022-09-22T22:04:07.900Z,63.26
2022-09-22T22:06:37.890Z,63.04
2022-09-22T22:09:07.042Z,63.27
2022-09-22T22:11:39.401Z,63.04
2022-09-22T22:14:08.302Z,63.38
2022-09-22T22:16:40.457Z,63.56
2022-09-22T22:19:09.532Z,63.87
2022-09-22T22:21:36.644Z,63.80
2022-09-22T22:24:23.183Z,63.98
2022-09-22T22:26:52.590Z,64.19
2022-09-22T22:29:20.893Z,64.15
2022-09-22T22:31:51.548Z,64.73
2022-09-22T22:34:20.836Z,64.97
2022-09-22T22:36:48.691Z,65.02
2022-09-22T22:39:15.328Z,65.01
2022-09-22T22:41:41.874Z,64.80
2022-09-22T22:44:08.551Z,65.19
2022-09-22T22:46:36.082Z,65.26
2022-09-22T22:49:03.310Z,65.26
2022-09-22T22:51:29.987Z,64.96
2022-09-22T22:53:56.754Z,65.29
2022-09-22T22:56:25.449Z,65.08
2022-09-22T22:58:53.202Z,65.11
2022-09-22T23:01:23.611Z,65.70
2022-09-22T23:03:52.899Z,65.39
2022-09-22T23:06:43.647Z,65.45
2022-09-22T23:09:13.997Z,65.48
2022-09-22T23:11:41.551Z,65.91
2022-09-22T23:14:11.383Z,65.78
2022-09-22T23:16:43.468Z,66.07
2022-09-22T23:19:12.676Z,66.20
2022-09-22T23:21:39.172Z,66.04
2022-09-22T23:24:06.118Z,66.47
2022-09-22T23:26:33.046Z,66.66
2022-09-22T23:28:59.944Z,66.42
2022-09-22T23:31:26.890Z,66.42
2022-09-22T23:33:54.144Z,66.52
2022-09-22T23:36:24.121Z,66.78
2022-09-22T23:39:03.990Z,66.84
2022-09-22T23:41:32.987Z,67.00
2022-09-22T23:43:59.552Z,67.05
2022-09-22T23:46:26.141Z,66.86
2022-09-22T23:48:52.685Z,66.93
2022-09-22T23:51:19.571Z,67.25
2022-09-22T23:53:46.228Z,67.07
2022-09-22T23:56:13.996Z,66.66
2022-09-22T23:58:40.549Z,66.75
